sensor_id;sensor_type;location;lat;lon;timestamp;pressure;altitude;pressure_sealevel;temperature;humidity
43155;BME280;34212;51.018;13.586;2022-12-05T00:01:32;97724.16;;;7.46;91.92
43155;BME280;34212;51.018;13.586;2022-12-05T00:06:39;97715.53;;;7.44;92.17
43155;BME280;34212;51.018;13.586;2022-12-05T00:11:43;97724.84;;;7.48;91.66
43155;BME280;34212;51.018;13.586;2022-12-05T00:16:44;97721.84;;;7.51;91.81
43155;BME280;34212;51.018;13.586;2022-12-05T00:21:46;97722.50;;;7.53;92.04
43155;BME280;34212;51.018;13.586;2022-12-05T00:26:47;97728.31;;;7.48;91.95
43155;BME280;34212;51.018;13.586;2022-12-05T00:31:49;97726.97;;;7.44;91.38
43155;BME280;34212;51.018;13.586;2022-12-05T00:36:50;97731.63;;;7.42;91.88
43155;BME280;34212;51.018;13.586;2022-12-05T00:41:52;97740.09;;;7.46;91.66
43155;BME280;34212;51.018;13.586;2022-12-05T00:46:53;97737.44;;;7.46;92.11
43155;BME280;34212;51.018;13.586;2022-12-05T00:51:55;97738.09;;;7.48;91.40
43155;BME280;34212;51.018;13.586;2022-12-05T00:56:56;97740.75;;;7.48;92.47
43155;BME280;34212;51.018;13.586;2022-12-05T01:01:58;97740.59;;;7.49;91.75
43155;BME280;34212;51.018;13.586;2022-12-05T01:06:59;97732.13;;;7.54;91.84
43155;BME280;34212;51.018;13.586;2022-12-05T01:12:00;97736.47;;;7.55;91.53
43155;BME280;34212;51.018;13.586;2022-12-05T01:17:02;97742.59;;;7.55;91.88
43155;BME280;34212;51.018;13.586;2022-12-05T01:22:04;97743.91;;;7.51;92.10
43155;BME280;34212;51.018;13.586;2022-12-05T01:27:05;97732.13;;;7.54;92.26
43155;BME280;34212;51.018;13.586;2022-12-05T01:32:06;97732.31;;;7.52;91.93
43155;BME280;34212;51.018;13.586;2022-12-05T01:37:08;97730.66;;;7.51;92.24
43155;BME280;34212;51.018;13.586;2022-12-05T01:42:11;97738.28;;;7.54;92.20
43155;BME280;34212;51.018;13.586;2022-12-05T01:47:15;97744.41;;;7.55;92.11
43155;BME280;34212;51.018;13.586;2022-12-05T01:52:21;97754.72;;;7.58;91.68
43155;BME280;34212;51.018;13.586;2022-12-05T01:57:24;97747.41;;;7.60;91.59
43155;BME280;34212;51.018;13.586;2022-12-05T02:02:27;97743.09;;;7.59;91.58
43155;BME280;34212;51.018;13.586;2022-12-05T02:07:30;97737.47;;;7.62;91.94
43155;BME280;34212;51.018;13.586;2022-12-05T02:12:33;97739.63;;;7.67;91.85
43155;BME280;34212;51.018;13.586;2022-12-05T02:17:50;97734.47;;;7.65;91.32
43155;BME280;34212;51.018;13.586;2022-12-05T02:33:37;97750.56;;;7.55;91.33
43155;BME280;34212;51.018;13.586;2022-12-05T02:39:09;97749.72;;;7.55;91.25
43155;BME280;34212;51.018;13.586;2022-12-05T02:44:16;97744.56;;;7.53;91.22
43155;BME280;34212;51.018;13.586;2022-12-05T02:49:23;97737.59;;;7.52;91.37
43155;BME280;34212;51.018;13.586;2022-12-05T02:54:31;97729.13;;;7.49;91.41
43155;BME280;34212;51.018;13.586;2022-12-05T02:59:34;97726.81;;;7.46;91.37
43155;BME280;34212;51.018;13.586;2022-12-05T03:04:36;97730.28;;;7.46;91.25
43155;BME280;34212;51.018;13.586;2022-12-05T03:09:42;97721.66;;;7.44;91.24
43155;BME280;34212;51.018;13.586;2022-12-05T03:14:48;97726.63;;;7.47;91.19
43155;BME280;34212;51.018;13.586;2022-12-05T03:20:04;97730.47;;;7.53;91.05
43155;BME280;34212;51.018;13.586;2022-12-05T03:25:07;97730.16;;;7.56;91.31
43155;BME280;34212;51.018;13.586;2022-12-05T03:30:12;97735.13;;;7.59;91.64
43155;BME280;34212;51.018;13.586;2022-12-05T03:40:46;97744.78;;;7.68;90.98
43155;BME280;34212;51.018;13.586;2022-12-05T03:45:54;97749.25;;;7.68;90.97
43155;BME280;34212;51.018;13.586;2022-12-05T03:51:02;97751.41;;;7.64;91.14
43155;BME280;34212;51.018;13.586;2022-12-05T03:56:13;97741.44;;;7.66;91.29
43155;BME280;34212;51.018;13.586;2022-12-05T04:01:17;97747.59;;;7.67;91.79
43155;BME280;34212;51.018;13.586;2022-12-05T04:11:25;97744.25;;;7.56;91.23
43155;BME280;34212;51.018;13.586;2022-12-05T04:16:37;97754.84;;;7.56;91.37
43155;BME280;34212;51.018;13.586;2022-12-05T04:21:59;97752.38;;;7.55;91.14
43155;BME280;34212;51.018;13.586;2022-12-05T04:32:33;97755.34;;;7.52;91.46
43155;BME280;34212;51.018;13.586;2022-12-05T04:37:39;97760.84;;;7.58;91.73
43155;BME280;34212;51.018;13.586;2022-12-05T04:42:44;97755.72;;;7.65;91.24
43155;BME280;34212;51.018;13.586;2022-12-05T04:47:52;97760.69;;;7.68;91.29
43155;BME280;34212;51.018;13.586;2022-12-05T04:52:56;97759.69;;;7.69;91.56
43155;BME280;34212;51.018;13.586;2022-12-05T04:58:16;97773.97;;;7.68;90.61
43155;BME280;34212;51.018;13.586;2022-12-05T05:03:27;97777.28;;;7.62;90.59
43155;BME280;34212;51.018;13.586;2022-12-05T05:08:30;97779.56;;;7.57;91.07
43155;BME280;34212;51.018;13.586;2022-12-05T05:13:31;97782.53;;;7.54;91.21
43155;BME280;34212;51.018;13.586;2022-12-05T05:18:33;97780.88;;;7.53;91.11
43155;BME280;34212;51.018;13.586;2022-12-05T05:23:34;97783.53;;;7.53;90.72
43155;BME280;34212;51.018;13.586;2022-12-05T05:28:36;97785.38;;;7.52;91.14
43155;BME280;34212;51.018;13.586;2022-12-05T05:33:37;97788.38;;;7.57;90.85
43155;BME280;34212;51.018;13.586;2022-12-05T05:38:41;97790.53;;;7.62;90.60
43155;BME280;34212;51.018;13.586;2022-12-05T05:43:43;97803.13;;;7.60;90.67
43155;BME280;34212;51.018;13.586;2022-12-05T05:48:46;97809.25;;;7.52;91.01
43155;BME280;34212;51.018;13.586;2022-12-05T05:53:48;97803.75;;;7.46;90.58
43155;BME280;34212;51.018;13.586;2022-12-05T05:59:00;97806.06;;;7.40;90.79
43155;BME280;34212;51.018;13.586;2022-12-05T06:04:03;97803.38;;;7.32;91.19
43155;BME280;34212;51.018;13.586;2022-12-05T06:09:06;97816.97;;;7.29;91.39
43155;BME280;34212;51.018;13.586;2022-12-05T06:14:08;97818.63;;;7.30;90.89
43155;BME280;34212;51.018;13.586;2022-12-05T06:19:09;97816.78;;;7.31;91.00
43155;BME280;34212;51.018;13.586;2022-12-05T06:24:11;97821.28;;;7.30;91.22
43155;BME280;34212;51.018;13.586;2022-12-05T06:29:12;97829.91;;;7.32;90.84
43155;BME280;34212;51.018;13.586;2022-12-05T06:34:14;97845.50;;;7.35;91.37
43155;BME280;34212;51.018;13.586;2022-12-05T06:39:15;97849.97;;;7.35;90.95
43155;BME280;34212;51.018;13.586;2022-12-05T06:44:17;97865.06;;;7.34;91.28
43155;BME280;34212;51.018;13.586;2022-12-05T06:49:18;97858.94;;;7.34;90.56
43155;BME280;34212;51.018;13.586;2022-12-05T06:54:19;97874.84;;;7.34;90.75
43155;BME280;34212;51.018;13.586;2022-12-05T06:59:21;97879.69;;;7.38;90.89
43155;BME280;34212;51.018;13.586;2022-12-05T07:04:23;97863.47;;;7.42;90.84
43155;BME280;34212;51.018;13.586;2022-12-05T07:09:25;97868.22;;;7.38;91.06
43155;BME280;34212;51.018;13.586;2022-12-05T07:14:45;97876.50;;;7.35;90.79
43155;BME280;34212;51.018;13.586;2022-12-05T07:19:50;97878.31;;;7.34;91.03
43155;BME280;34212;51.018;13.586;2022-12-05T07:24:52;97875.00;;;7.32;91.36
43155;BME280;34212;51.018;13.586;2022-12-05T07:29:54;97882.81;;;7.34;91.35
43155;BME280;34212;51.018;13.586;2022-12-05T07:34:56;97894.25;;;7.34;91.21
43155;BME280;34212;51.018;13.586;2022-12-05T07:39:58;97900.91;;;7.38;91.16
43155;BME280;34212;51.018;13.586;2022-12-05T07:44:59;97892.28;;;7.36;91.18
43155;BME280;34212;51.018;13.586;2022-12-05T07:50:01;97902.94;;;7.45;91.58
43155;BME280;34212;51.018;13.586;2022-12-05T07:55:03;97898.34;;;7.55;91.51
43155;BME280;34212;51.018;13.586;2022-12-05T08:00:05;97909.16;;;7.61;91.79
43155;BME280;34212;51.018;13.586;2022-12-05T08:05:12;97920.13;;;7.67;91.46
43155;BME280;34212;51.018;13.586;2022-12-05T08:10:14;97905.91;;;7.76;91.42
43155;BME280;34212;51.018;13.586;2022-12-05T08:15:15;97919.19;;;7.84;90.96
43155;BME280;34212;51.018;13.586;2022-12-05T08:20:17;97923.88;;;7.90;90.95
43155;BME280;34212;51.018;13.586;2022-12-05T08:25:18;97915.09;;;7.90;91.59
43155;BME280;34212;51.018;13.586;2022-12-05T08:30:20;97921.91;;;7.92;91.49
43155;BME280;34212;51.018;13.586;2022-12-05T08:35:21;97924.06;;;7.97;91.53
43155;BME280;34212;51.018;13.586;2022-12-05T08:40:23;97927.06;;;8.02;92.03
43155;BME280;34212;51.018;13.586;2022-12-05T08:45:24;97924.78;;;8.07;91.77
43155;BME280;34212;51.018;13.586;2022-12-05T08:50:26;97924.47;;;8.10;91.83
43155;BME280;34212;51.018;13.586;2022-12-05T08:55:27;97928.44;;;8.14;91.65
43155;BME280;34212;51.018;13.586;2022-12-05T09:00:28;97931.44;;;8.19;92.01
43155;BME280;34212;51.018;13.586;2022-12-05T09:05:30;97937.44;;;8.21;91.47
43155;BME280;34212;51.018;13.586;2022-12-05T09:10:32;97940.25;;;8.20;90.98
43155;BME280;34212;51.018;13.586;2022-12-05T09:15:37;97946.72;;;8.17;91.61
43155;BME280;34212;51.018;13.586;2022-12-05T09:20:38;97957.34;;;8.17;91.08
43155;BME280;34212;51.018;13.586;2022-12-05T09:25:40;97968.81;;;8.18;90.76
43155;BME280;34212;51.018;13.586;2022-12-05T09:30:41;97971.47;;;8.18;91.09
43155;BME280;34212;51.018;13.586;2022-12-05T09:35:44;97971.63;;;8.16;90.96
43155;BME280;34212;51.018;13.586;2022-12-05T09:40:50;97964.16;;;8.20;90.73
43155;BME280;34212;51.018;13.586;2022-12-05T09:46:13;97963.66;;;8.24;90.64
43155;BME280;34212;51.018;13.586;2022-12-05T09:51:17;97968.66;;;8.27;90.29
43155;BME280;34212;51.018;13.586;2022-12-05T09:56:31;97963.66;;;8.24;90.25
43155;BME280;34212;51.018;13.586;2022-12-05T10:12:09;97970.13;;;8.22;89.87
43155;BME280;34212;51.018;13.586;2022-12-05T10:17:21;97978.94;;;8.22;90.21
43155;BME280;34212;51.018;13.586;2022-12-05T10:27:32;97970.13;;;8.22;89.95
43155;BME280;34212;51.018;13.586;2022-12-05T10:32:51;97970.31;;;8.20;90.13
43155;BME280;34212;51.018;13.586;2022-12-05T10:37:58;97960.34;;;8.22;89.85
43155;BME280;34212;51.018;13.586;2022-12-05T10:43:00;97958.69;;;8.21;90.17
43155;BME280;34212;51.018;13.586;2022-12-05T10:48:02;97958.53;;;8.23;90.44
43155;BME280;34212;51.018;13.586;2022-12-05T10:53:05;97960.69;;;8.27;89.84
43155;BME280;34212;51.018;13.586;2022-12-05T11:03:24;97966.38;;;8.32;89.88
43155;BME280;34212;51.018;13.586;2022-12-05T11:08:29;97956.06;;;8.29;90.11
43155;BME280;34212;51.018;13.586;2022-12-05T11:14:21;97960.56;;;8.37;90.00
43155;BME280;34212;51.018;13.586;2022-12-05T11:19:27;97961.94;;;8.41;90.54
43155;BME280;34212;51.018;13.586;2022-12-05T11:24:29;97968.09;;;8.42;89.68
43155;BME280;34212;51.018;13.586;2022-12-05T11:29:34;97944.94;;;8.34;89.28
43155;BME280;34212;51.018;13.586;2022-12-05T11:34:38;97950.88;;;8.28;89.45
43155;BME280;34212;51.018;13.586;2022-12-05T11:39:44;97952.22;;;8.24;89.19
43155;BME280;34212;51.018;13.586;2022-12-05T11:50:10;97958.69;;;8.21;89.08
43155;BME280;34212;51.018;13.586;2022-12-05T11:55:15;97957.53;;;8.24;89.10
43155;BME280;34212;51.018;13.586;2022-12-05T12:00:21;97954.38;;;8.28;88.91
43155;BME280;34212;51.018;13.586;2022-12-05T12:10:33;97953.22;;;8.31;88.93
43155;BME280;34212;51.018;13.586;2022-12-05T12:15:50;97947.91;;;8.31;88.59
43155;BME280;34212;51.018;13.586;2022-12-05T12:21:16;97943.41;;;8.31;89.40
43155;BME280;34212;51.018;13.586;2022-12-05T12:26:41;97940.63;;;8.33;89.11
43155;BME280;34212;51.018;13.586;2022-12-05T12:42:52;97924.34;;;8.36;89.17
43155;BME280;34212;51.018;13.586;2022-12-05T12:48:08;97922.53;;;8.37;88.56
43155;BME280;34212;51.018;13.586;2022-12-05T12:53:33;97920.03;;;8.35;88.73
43155;BME280;34212;51.018;13.586;2022-12-05T12:59:42;97931.50;;;8.36;89.20
43155;BME280;34212;51.018;13.586;2022-12-05T13:04:29;97933.03;;;8.38;89.02
43155;BME280;34212;51.018;13.586;2022-12-05T13:09:39;97929.50;;;8.38;89.03
43155;BME280;34212;51.018;13.586;2022-12-05T13:14:51;97930.19;;;8.40;88.99
43155;BME280;34212;51.018;13.586;2022-12-05T13:19:53;97935.81;;;8.37;88.58
43155;BME280;34212;51.018;13.586;2022-12-05T13:24:57;97946.25;;;8.30;88.97
43155;BME280;34212;51.018;13.586;2022-12-05T13:30:01;97943.06;;;8.18;88.79
43155;BME280;34212;51.018;13.586;2022-12-05T13:35:09;97951.88;;;7.84;87.04
43155;BME280;34212;51.018;13.586;2022-12-05T13:40:23;97957.94;;;7.60;87.72
43155;BME280;34212;51.018;13.586;2022-12-05T13:45:59;97956.34;;;7.50;88.51
43155;BME280;34212;51.018;13.586;2022-12-05T13:51:10;97956.94;;;7.35;87.67
43155;BME280;34212;51.018;13.586;2022-12-05T14:11:38;97956.50;;;7.22;88.76
43155;BME280;34212;51.018;13.586;2022-12-05T14:16:42;97952.88;;;7.23;88.44
43155;BME280;34212;51.018;13.586;2022-12-05T14:27:06;97947.75;;;7.04;88.06
43155;BME280;34212;51.018;13.586;2022-12-05T14:42:24;97953.84;;;6.78;88.19
43155;BME280;34212;51.018;13.586;2022-12-05T14:47:31;97960.25;;;6.76;88.54
43155;BME280;34212;51.018;13.586;2022-12-05T14:52:33;97959.13;;;6.78;88.85
43155;BME280;34212;51.018;13.586;2022-12-05T14:57:42;97957.88;;;6.82;88.60
43155;BME280;34212;51.018;13.586;2022-12-05T15:02:47;97956.56;;;6.86;88.96
43155;BME280;34212;51.018;13.586;2022-12-05T15:07:52;97964.56;;;6.94;89.23
43155;BME280;34212;51.018;13.586;2022-12-05T15:13:08;97959.34;;;7.03;88.96
43155;BME280;34212;51.018;13.586;2022-12-05T15:18:23;97972.28;;;7.06;88.76
43155;BME280;34212;51.018;13.586;2022-12-05T15:23:41;97967.69;;;7.08;89.44
43155;BME280;34212;51.018;13.586;2022-12-05T15:29:06;97978.13;;;7.09;88.94
43155;BME280;34212;51.018;13.586;2022-12-05T15:34:17;97977.00;;;7.12;88.90
43155;BME280;34212;51.018;13.586;2022-12-05T15:39:23;97968.66;;;7.07;89.08
43155;BME280;34212;51.018;13.586;2022-12-05T15:44:28;97974.25;;;7.04;88.88
43155;BME280;34212;51.018;13.586;2022-12-05T15:49:37;97979.03;;;7.00;89.32
43155;BME280;34212;51.018;13.586;2022-12-05T15:54:39;97976.16;;;6.93;88.92
43155;BME280;34212;51.018;13.586;2022-12-05T15:59:46;97983.00;;;6.96;89.04
43155;BME280;34212;51.018;13.586;2022-12-05T16:04:56;97988.06;;;6.89;88.85
43155;BME280;34212;51.018;13.586;2022-12-05T16:09:59;97986.03;;;6.83;89.31
43155;BME280;34212;51.018;13.586;2022-12-05T16:15:02;97996.09;;;6.80;89.51
43155;BME280;34212;51.018;13.586;2022-12-05T16:20:22;97999.28;;;6.83;89.54
43155;BME280;34212;51.018;13.586;2022-12-05T16:25:27;98000.63;;;6.87;89.49
43155;BME280;34212;51.018;13.586;2022-12-05T16:30:30;98007.59;;;6.88;89.19
43155;BME280;34212;51.018;13.586;2022-12-05T17:18:15;98000.25;;;6.46;88.44
43155;BME280;34212;51.018;13.586;2022-12-05T17:50:51;98006.44;;;6.10;87.76
43155;BME280;34212;51.018;13.586;2022-12-05T17:55:54;98006.44;;;6.10;87.94
43155;BME280;34212;51.018;13.586;2022-12-05T18:01:17;98015.34;;;6.09;87.62
43155;BME280;34212;51.018;13.586;2022-12-05T18:06:30;98024.88;;;6.01;87.99
43155;BME280;34212;51.018;13.586;2022-12-05T18:12:02;98016.22;;;5.99;88.07
43155;BME280;34212;51.018;13.586;2022-12-05T18:17:20;98023.06;;;5.92;88.10
43155;BME280;34212;51.018;13.586;2022-12-05T18:22:26;98027.44;;;5.74;88.59
43155;BME280;34212;51.018;13.586;2022-12-05T18:27:45;98018.00;;;5.62;88.99
43155;BME280;34212;51.018;13.586;2022-12-05T18:38:48;98018.72;;;5.44;90.08
43155;BME280;34212;51.018;13.586;2022-12-05T18:43:50;98034.75;;;5.52;90.45
43155;BME280;34212;51.018;13.586;2022-12-05T18:48:52;98036.09;;;5.66;90.49
43155;BME280;34212;51.018;13.586;2022-12-05T18:53:58;98043.72;;;5.79;90.33
43155;BME280;34212;51.018;13.586;2022-12-05T18:59:02;98049.13;;;5.87;90.37
43155;BME280;34212;51.018;13.586;2022-12-05T19:04:04;98051.50;;;5.90;90.21
43155;BME280;34212;51.018;13.586;2022-12-05T19:09:11;98050.25;;;5.94;90.41
43155;BME280;34212;51.018;13.586;2022-12-05T19:14:15;98043.53;;;6.00;90.29
43155;BME280;34212;51.018;13.586;2022-12-05T19:25:43;98046.69;;;6.13;90.75
43155;BME280;34212;51.018;13.586;2022-12-05T19:32:04;98048.03;;;6.27;90.37
43155;BME280;34212;51.018;13.586;2022-12-05T19:38:02;98043.03;;;6.24;90.19
43155;BME280;34212;51.018;13.586;2022-12-05T19:44:09;98032.56;;;6.22;90.35
43155;BME280;34212;51.018;13.586;2022-12-05T19:50:38;98026.44;;;6.22;90.55
43155;BME280;34212;51.018;13.586;2022-12-05T19:56:11;98040.13;;;6.17;90.55
43155;BME280;34212;51.018;13.586;2022-12-05T20:01:20;98035.13;;;6.14;90.43
43155;BME280;34212;51.018;13.586;2022-12-05T20:06:23;98040.44;;;6.14;90.69
43155;BME280;34212;51.018;13.586;2022-12-05T20:11:25;98040.66;;;6.21;90.71
43155;BME280;34212;51.018;13.586;2022-12-05T20:16:29;98046.22;;;6.28;90.65
43155;BME280;34212;51.018;13.586;2022-12-05T20:21:32;98047.88;;;6.29;90.50
43155;BME280;34212;51.018;13.586;2022-12-05T20:26:37;98047.97;;;6.37;90.77
43155;BME280;34212;51.018;13.586;2022-12-05T20:31:41;98050.88;;;6.43;90.31
43155;BME280;34212;51.018;13.586;2022-12-05T20:36:42;98059.66;;;6.44;90.26
43155;BME280;34212;51.018;13.586;2022-12-05T20:41:44;98037.91;;;6.40;90.38
43155;BME280;34212;51.018;13.586;2022-12-05T20:46:50;98041.75;;;6.28;89.60
43155;BME280;34212;51.018;13.586;2022-12-05T20:51:52;98034.31;;;6.04;89.44
43155;BME280;34212;51.018;13.586;2022-12-05T20:56:53;98027.25;;;5.85;90.06
43155;BME280;34212;51.018;13.586;2022-12-05T21:01:55;98027.44;;;5.74;89.73
43155;BME280;34212;51.018;13.586;2022-12-05T21:06:57;98031.91;;;5.64;90.21
43155;BME280;34212;51.018;13.586;2022-12-05T21:11:58;98019.41;;;5.56;89.61
43155;BME280;34212;51.018;13.586;2022-12-05T21:16:59;98026.38;;;5.47;90.36
43155;BME280;34212;51.018;13.586;2022-12-05T21:22:01;98020.72;;;5.42;89.72
43155;BME280;34212;51.018;13.586;2022-12-05T21:27:02;98021.00;;;5.39;89.83
43155;BME280;34212;51.018;13.586;2022-12-05T21:32:04;98023.91;;;5.36;90.19
43155;BME280;34212;51.018;13.586;2022-12-05T21:37:05;98021.38;;;5.44;90.62
43155;BME280;34212;51.018;13.586;2022-12-05T21:42:07;98019.94;;;5.60;90.65
43155;BME280;34212;51.018;13.586;2022-12-05T21:47:08;98009.22;;;5.71;89.79
43155;BME280;34212;51.018;13.586;2022-12-05T21:52:09;98012.81;;;5.70;89.84
43155;BME280;34212;51.018;13.586;2022-12-05T21:57:11;98004.59;;;5.73;89.82
43155;BME280;34212;51.018;13.586;2022-12-05T22:02:12;98002.06;;;5.81;90.18
43155;BME280;34212;51.018;13.586;2022-12-05T22:07:14;98008.44;;;5.88;90.23
43155;BME280;34212;51.018;13.586;2022-12-05T22:12:16;98019.31;;;5.85;90.67
43155;BME280;34212;51.018;13.586;2022-12-05T22:17:18;98008.44;;;5.88;90.66
43155;BME280;34212;51.018;13.586;2022-12-05T22:22:19;98003.28;;;5.96;90.46
43155;BME280;34212;51.018;13.586;2022-12-05T22:27:20;98008.69;;;6.05;90.43
43155;BME280;34212;51.018;13.586;2022-12-05T22:32:22;98005.88;;;6.06;90.53
43155;BME280;34212;51.018;13.586;2022-12-05T22:37:23;97996.25;;;6.15;90.26
43155;BME280;34212;51.018;13.586;2022-12-05T22:42:25;97976.88;;;6.14;89.67
43155;BME280;34212;51.018;13.586;2022-12-05T22:47:27;97991.13;;;6.04;89.85
43155;BME280;34212;51.018;13.586;2022-12-05T22:52:28;97986.94;;;6.01;90.55
43155;BME280;34212;51.018;13.586;2022-12-05T22:57:30;97985.16;;;6.01;90.35
43155;BME280;34212;51.018;13.586;2022-12-05T23:02:31;97987.81;;;6.01;90.57
43155;BME280;34212;51.018;13.586;2022-12-05T23:07:33;97979.88;;;6.01;90.15
43155;BME280;34212;51.018;13.586;2022-12-05T23:12:34;97966.94;;;5.98;90.10
43155;BME280;34212;51.018;13.586;2022-12-05T23:17:35;97970.94;;;6.03;90.38
43155;BME280;34212;51.018;13.586;2022-12-05T23:22:37;97960.19;;;6.04;90.03
43155;BME280;34212;51.018;13.586;2022-12-05T23:27:38;97946.22;;;6.12;89.59
43155;BME280;34212;51.018;13.586;2022-12-05T23:32:40;97937.97;;;6.15;89.68
43155;BME280;34212;51.018;13.586;2022-12-05T23:37:41;97926.84;;;6.11;90.00
43155;BME280;34212;51.018;13.586;2022-12-05T23:42:43;97918.13;;;6.01;89.62
43155;BME280;34212;51.018;13.586;2022-12-05T23:47:44;97922.75;;;5.99;90.29
43155;BME280;34212;51.018;13.586;2022-12-05T23:52:45;97921.75;;;6.00;89.79
43155;BME280;34212;51.018;13.586;2022-12-05T23:57:47;97926.25;;;5.90;89.76
